Time;durP1;ratioP1;P1;durP2;ratioP2;P2;SDS_P1;SDS_P2;PMS_P1;PMS_P2;Temp;Humidity;BMP_temperature;BMP_pressure;BME280_temperature;BME280_humidity;BME280_pressure;Samples;Min_cycle;Max_cycle;Signal;HPM_P1;HPM_P2
2021/09/20 00:00:48;;;;;;;6.28;3.55;;;;;;;28.91;24.37;98085.25;5066611;28;20036;-85
2021/09/20 00:03:14;;;;;;;4.03;3.28;;;;;;;28.95;24.38;98088.72;5073084;28;20033;-83
2021/09/20 00:05:41;;;;;;;5.63;3.30;;;;;;;29.07;24.07;98084.97;5070091;28;20415;-84
2021/09/20 00:08:07;;;;;;;5.55;4.30;;;;;;;28.90;24.32;98086.50;5073208;28;20060;-84
2021/09/20 00:10:33;;;;;;;4.20;3.22;;;;;;;29.21;24.17;98090.06;5073763;28;20062;-83
2021/09/20 00:12:59;;;;;;;8.95;3.85;;;;;;;29.09;23.99;98088.91;5070912;28;20052;-83
2021/09/20 00:15:25;;;;;;;5.15;3.67;;;;;;;29.07;24.19;98088.59;5069487;28;20072;-83
2021/09/20 00:17:52;;;;;;;6.75;4.78;;;;;;;28.83;24.52;98076.28;5070874;28;20059;-83
2021/09/20 00:20:18;;;;;;;9.95;4.93;;;;;;;28.84;24.39;98094.81;5063284;28;20064;-83
2021/09/20 00:22:44;;;;;;;7.30;4.55;;;;;;;28.96;24.24;98079.00;5071095;28;20369;-84
2021/09/20 00:25:11;;;;;;;8.82;4.53;;;;;;;28.78;24.36;98082.53;5072917;28;20039;-83
2021/09/20 00:27:38;;;;;;;7.07;4.20;;;;;;;29.09;24.31;98079.63;5071946;28;20611;-84
2021/09/20 00:30:06;;;;;;;5.80;3.65;;;;;;;28.74;24.32;98056.47;5071639;28;20060;-83
2021/09/20 00:32:32;;;;;;;5.65;4.32;;;;;;;28.58;24.86;98080.09;5072523;28;20029;-84
2021/09/20 00:34:58;;;;;;;5.03;3.40;;;;;;;28.53;25.02;98083.53;5070646;28;20403;-83
2021/09/20 00:37:24;;;;;;;5.13;3.92;;;;;;;28.58;24.83;98080.09;5071696;28;20071;-84
2021/09/20 00:39:51;;;;;;;6.22;4.32;;;;;;;28.34;25.30;98075.41;5072907;28;20031;-83
2021/09/20 00:42:17;;;;;;;4.90;3.92;;;;;;;28.71;24.86;98075.13;5071096;28;20388;-84
2021/09/20 00:44:44;;;;;;;6.63;3.92;;;;;;;28.92;24.42;98076.28;5072651;28;20097;-83
2021/09/20 00:47:10;;;;;;;5.97;3.85;;;;;;;29.13;24.31;98068.94;5082195;28;20041;-84
2021/09/20 00:49:36;;;;;;;7.32;4.05;;;;;;;29.33;23.88;98083.47;5065126;28;20020;-83
2021/09/20 00:52:02;;;;;;;5.07;3.45;;;;;;;29.12;24.34;98075.88;5070194;28;23303;-84
2021/09/20 00:54:28;;;;;;;4.78;4.28;;;;;;;29.01;24.33;98070.66;5069981;28;20486;-83
2021/09/20 00:56:55;;;;;;;7.57;4.50;;;;;;;29.08;24.17;98083.72;5068305;28;20060;-83
2021/09/20 00:59:21;;;;;;;5.88;3.50;;;;;;;29.23;24.16;98073.41;5070468;28;20039;-83
2021/09/20 01:01:48;;;;;;;5.00;3.28;;;;;;;29.45;23.93;98068.41;5069737;28;20021;-83
2021/09/20 01:04:14;;;;;;;8.40;5.15;;;;;;;29.12;24.13;98071.03;5068907;28;20370;-83
2021/09/20 01:06:40;;;;;;;7.00;4.80;;;;;;;28.42;24.99;98068.25;5070773;28;20400;-83
2021/09/20 01:09:07;;;;;;;5.55;3.90;;;;;;;28.28;25.21;98071.63;5069396;28;20117;-83
2021/09/20 01:11:33;;;;;;;7.88;4.85;;;;;;;28.36;25.21;98070.09;5071026;28;20033;-83
2021/09/20 01:13:59;;;;;;;7.20;4.88;;;;;;;27.90;25.92;98077.50;5072632;28;20032;-83
2021/09/20 01:16:25;;;;;;;9.70;4.78;;;;;;;28.20;25.47;98076.75;5071694;28;20099;-83
2021/09/20 01:18:51;;;;;;;7.28;4.03;;;;;;;28.46;25.37;98072.50;5068173;28;20093;-83
2021/09/20 01:21:18;;;;;;;8.10;4.68;;;;;;;28.75;24.74;98075.00;5070764;28;20036;-84
2021/09/20 01:23:44;;;;;;;9.30;4.63;;;;;;;28.91;24.73;98074.75;5072554;28;20044;-84
2021/09/20 01:26:13;;;;;;;5.80;3.63;;;;;;;28.65;25.04;98071.38;5067867;28;20032;-84
2021/09/20 01:28:39;;;;;;;5.80;4.07;;;;;;;28.74;24.83;98071.38;5068147;28;20040;-83
2021/09/20 01:31:07;;;;;;;4.82;3.70;;;;;;;28.79;24.57;98067.16;5063037;28;20028;-83
2021/09/20 01:33:33;;;;;;;7.57;4.93;;;;;;;28.24;25.57;98073.81;5069850;28;20059;-83
2021/09/20 01:35:59;;;;;;;5.97;3.97;;;;;;;28.44;25.29;98072.19;5068137;28;20442;-84
2021/09/20 01:38:25;;;;;;;8.23;5.63;;;;;;;28.26;25.38;98076.97;5068969;28;20388;-83
2021/09/20 01:40:52;;;;;;;6.25;4.07;;;;;;;28.36;25.51;98079.34;5068373;28;20042;-83
2021/09/20 01:43:18;;;;;;;7.65;4.82;;;;;;;27.84;25.90;98082.16;5070080;28;20039;-83
2021/09/20 01:45:46;;;;;;;7.10;4.70;;;;;;;27.73;26.27;98079.72;5067793;28;20028;-85
2021/09/20 01:48:13;;;;;;;11.00;5.38;;;;;;;27.42;26.66;98081.69;5071599;28;20492;-84
2021/09/20 01:50:40;;;;;;;11.35;5.90;;;;;;;27.23;26.83;98075.06;5068705;28;20484;-83
2021/09/20 01:53:06;;;;;;;6.47;4.80;;;;;;;27.07;27.04;98077.25;5068061;28;20049;-83
2021/09/20 01:55:32;;;;;;;10.05;5.53;;;;;;;27.42;26.69;98082.44;5072490;28;20043;-83
2021/09/20 01:57:58;;;;;;;6.40;4.53;;;;;;;27.77;26.23;98079.59;5071291;28;20086;-83
2021/09/20 02:00:24;;;;;;;9.60;5.18;;;;;;;27.72;26.51;98083.81;5068657;28;20028;-84
2021/09/20 02:02:50;;;;;;;6.38;4.35;;;;;;;27.80;26.06;98085.09;5066931;28;20037;-84
2021/09/20 02:05:17;;;;;;;9.40;6.53;;;;;;;27.44;26.92;98079.19;5066387;28;20071;-83
2021/09/20 02:07:43;;;;;;;7.38;4.68;;;;;;;27.89;26.16;98073.88;5062122;28;20020;-83
2021/09/20 02:10:12;;;;;;;8.43;4.60;;;;;;;28.21;25.66;98071.91;5053873;28;20032;-84
2021/09/20 02:12:38;;;;;;;8.82;5.05;;;;;;;28.14;25.61;98081.44;5048909;28;20036;-84
2021/09/20 02:15:06;;;;;;;7.50;4.85;;;;;;;28.16;25.63;98084.59;5050043;28;20174;-83
2021/09/20 02:17:33;;;;;;;8.48;5.95;;;;;;;27.65;26.21;98084.06;5052041;28;20056;-83
2021/09/20 02:20:00;;;;;;;7.70;5.00;;;;;;;28.05;25.83;98087.81;5059144;28;20075;-83
2021/09/20 02:22:27;;;;;;;8.38;4.90;;;;;;;28.00;25.92;98082.78;5061902;28;20036;-83
2021/09/20 02:24:53;;;;;;;7.32;5.00;;;;;;;28.29;25.58;98076.00;5060609;28;20032;-83
2021/09/20 02:27:19;;;;;;;6.30;4.28;;;;;;;28.45;25.44;98081.47;5065581;28;20102;-83
2021/09/20 02:29:45;;;;;;;6.90;4.35;;;;;;;28.69;24.79;98083.31;5070987;28;20060;-83
2021/09/20 02:32:11;;;;;;;7.78;5.35;;;;;;;28.18;25.37;98081.28;5069442;28;20085;-83
2021/09/20 02:34:38;;;;;;;7.82;4.32;;;;;;;28.20;25.62;98078.78;5068965;28;20449;-83
2021/09/20 02:37:04;;;;;;;6.15;3.90;;;;;;;28.46;25.09;98085.84;5075081;28;20032;-83
2021/09/20 02:39:30;;;;;;;5.70;4.13;;;;;;;28.52;24.96;98081.19;5072475;28;20074;-83
2021/09/20 02:41:56;;;;;;;6.22;4.18;;;;;;;28.41;24.91;98083.59;5071973;28;20404;-83
2021/09/20 02:44:23;;;;;;;6.32;4.18;;;;;;;28.12;25.43;98083.16;5073835;28;20075;-83
2021/09/20 02:46:49;;;;;;;7.03;4.25;;;;;;;28.22;25.37;98074.25;5073210;28;20055;-83
2021/09/20 02:49:16;;;;;;;9.00;4.38;;;;;;;28.37;25.06;98075.28;5069818;28;20074;-83
2021/09/20 02:51:42;;;;;;;5.68;3.90;;;;;;;28.30;24.79;98078.41;5072872;28;20032;-84
2021/09/20 02:54:08;;;;;;;5.32;3.70;;;;;;;28.37;24.69;98072.47;5073430;28;20121;-83
2021/09/20 02:56:34;;;;;;;5.00;3.47;;;;;;;28.59;24.53;98069.63;5073559;28;20029;-83
2021/09/20 02:59:00;;;;;;;6.57;3.70;;;;;;;28.97;24.00;98069.25;5073855;28;20045;-83
2021/09/20 03:01:26;;;;;;;6.13;3.38;;;;;;;29.09;23.91;98071.94;5069792;28;20512;-84
2021/09/20 03:03:52;;;;;;;4.13;3.00;;;;;;;29.37;23.68;98073.59;5072010;28;20090;-83
2021/09/20 03:06:18;;;;;;;4.30;3.25;;;;;;;29.68;23.15;98073.44;5078142;28;20158;-83
2021/09/20 03:08:45;;;;;;;4.30;3.03;;;;;;;29.63;23.04;98071.22;5072230;28;20032;-83
2021/09/20 03:11:11;;;;;;;5.82;3.80;;;;;;;29.41;23.43;98074.22;5072934;28;20036;-83
2021/09/20 03:13:37;;;;;;;5.70;4.10;;;;;;;29.47;23.37;98073.59;5071286;28;20081;-83
2021/09/20 03:16:03;;;;;;;8.50;3.88;;;;;;;29.45;23.38;98071.25;5072807;28;20043;-84
2021/09/20 03:18:29;;;;;;;6.57;3.65;;;;;;;29.28;23.55;98075.63;5073230;28;20381;-83
2021/09/20 03:20:55;;;;;;;7.07;3.83;;;;;;;29.23;23.65;98079.06;5071991;28;20392;-83
2021/09/20 03:23:21;;;;;;;6.30;3.58;;;;;;;29.39;23.71;98081.59;5073878;28;20503;-85
2021/09/20 03:25:47;;;;;;;7.28;3.83;;;;;;;29.68;23.26;98070.59;5074166;28;20020;-85
2021/09/20 03:28:13;;;;;;;5.55;3.85;;;;;;;29.92;23.05;98074.38;5070933;28;20115;-85
2021/09/20 03:30:39;;;;;;;7.03;3.75;;;;;;;30.05;22.65;98075.00;5072915;28;20048;-85
2021/09/20 03:33:05;;;;;;;8.45;3.67;;;;;;;30.18;22.52;98069.13;5073196;28;20044;-86
2021/09/20 03:35:31;;;;;;;6.88;4.82;;;;;;;29.83;22.80;98076.41;5072616;28;20032;-86
2021/09/20 03:37:57;;;;;;;6.50;4.30;;;;;;;29.55;23.37;98072.00;5073468;28;20430;-85
2021/09/20 03:40:23;;;;;;;5.38;3.90;;;;;;;29.36;23.43;98076.88;5072622;28;20043;-86
2021/09/20 03:42:49;;;;;;;6.82;4.35;;;;;;;28.99;23.99;98072.38;5073674;28;20035;-85
2021/09/20 03:45:16;;;;;;;5.93;4.80;;;;;;;28.72;24.28;98079.56;5071641;28;20029;-85
2021/09/20 03:47:42;;;;;;;8.10;4.03;;;;;;;28.85;24.28;98081.44;5073824;28;20442;-86
2021/09/20 03:50:10;;;;;;;7.03;3.70;;;;;;;28.71;24.18;98080.00;5070481;28;20104;-86
2021/09/20 03:52:36;;;;;;;6.25;4.68;;;;;;;28.61;24.17;98081.25;5071263;28;20047;-85
2021/09/20 03:55:03;;;;;;;5.78;3.97;;;;;;;28.57;24.28;98083.38;5067736;28;20040;-85
2021/09/20 03:57:30;;;;;;;7.20;4.05;;;;;;;28.48;24.43;98092.59;5072711;28;20031;-86
2021/09/20 03:59:56;;;;;;;5.95;3.22;;;;;;;28.55;24.45;98088.69;5072143;28;20039;-83
2021/09/20 04:02:22;;;;;;;7.03;4.10;;;;;;;28.71;24.44;98088.47;5072435;28;20115;-84
2021/09/20 04:04:48;;;;;;;6.82;4.38;;;;;;;28.73;24.13;98089.59;5069846;28;20085;-83
2021/09/20 04:07:14;;;;;;;8.20;4.45;;;;;;;28.70;24.27;98089.75;5072840;28;20028;-83
2021/09/20 04:09:41;;;;;;;6.38;3.78;;;;;;;28.42;24.70;98094.47;5072465;28;21349;-82
2021/09/20 04:12:09;;;;;;;5.28;3.20;;;;;;;28.50;24.64;98098.56;5064610;28;20029;-85
2021/09/20 04:14:37;;;;;;;6.45;3.10;;;;;;;28.74;24.49;98096.03;5067409;28;20025;-84
2021/09/20 04:17:04;;;;;;;7.25;4.10;;;;;;;28.67;24.45;98101.97;5068647;28;20032;-83
2021/09/20 04:19:30;;;;;;;6.95;3.60;;;;;;;28.64;24.27;98097.25;5068405;28;20119;-83
2021/09/20 04:21:56;;;;;;;7.95;3.78;;;;;;;28.62;24.47;98099.75;5070790;28;20464;-84
2021/09/20 04:24:22;;;;;;;6.50;3.15;;;;;;;28.90;24.32;98097.81;5065688;28;20568;-84
2021/09/20 04:26:48;;;;;;;6.95;3.78;;;;;;;28.96;23.97;98110.09;5069768;28;20480;-84
2021/09/20 04:29:14;;;;;;;5.35;4.03;;;;;;;28.38;24.65;98109.97;5069388;28;20040;-85
2021/09/20 04:31:40;;;;;;;5.13;3.53;;;;;;;28.25;24.73;98114.91;5072599;28;20032;-84
2021/09/20 04:34:06;;;;;;;5.72;3.65;;;;;;;28.29;24.88;98113.53;5068030;28;20052;-85
2021/09/20 04:36:32;;;;;;;5.22;3.85;;;;;;;28.21;24.82;98120.72;5067680;28;20064;-85
2021/09/20 04:38:58;;;;;;;5.65;3.72;;;;;;;27.77;25.70;98116.28;5068924;28;20060;-85
2021/09/20 04:41:24;;;;;;;5.25;3.22;;;;;;;27.56;26.02;98112.19;5063667;28;20024;-84
2021/09/20 04:43:50;;;;;;;5.13;3.95;;;;;;;27.58;25.73;98108.91;5067650;28;20070;-84
2021/09/20 04:46:17;;;;;;;8.05;4.68;;;;;;;27.62;25.62;98112.38;5072817;28;20534;-84
2021/09/20 04:48:43;;;;;;;4.60;3.33;;;;;;;27.61;25.80;98111.59;5072126;28;20051;-84
2021/09/20 04:51:09;;;;;;;6.20;3.15;;;;;;;27.90;25.62;98117.78;5072013;28;20035;-85
2021/09/20 04:53:35;;;;;;;7.15;3.08;;;;;;;28.33;25.19;98110.56;5071007;28;20385;-85
2021/09/20 04:56:01;;;;;;;5.43;3.08;;;;;;;28.34;24.83;98106.47;5069421;28;20158;-85
2021/09/20 04:58:27;;;;;;;4.68;3.60;;;;;;;28.36;24.84;98120.91;5070345;28;20037;-85
2021/09/20 05:00:53;;;;;;;4.90;3.33;;;;;;;28.29;25.00;98124.81;5070640;28;20040;-84
2021/09/20 05:03:19;;;;;;;3.65;2.75;;;;;;;28.33;25.11;98133.97;5072492;28;20104;-84
2021/09/20 05:05:45;;;;;;;4.97;3.25;;;;;;;28.25;24.95;98129.03;5071789;28;20040;-84
2021/09/20 05:08:12;;;;;;;5.25;4.07;;;;;;;28.32;24.86;98140.84;5072418;28;20032;-84
2021/09/20 05:10:38;;;;;;;6.43;3.30;;;;;;;28.37;24.99;98136.63;5071503;28;20442;-84
2021/09/20 05:13:04;;;;;;;8.85;4.28;;;;;;;28.08;25.31;98136.16;5072052;28;20040;-84
2021/09/20 05:15:31;;;;;;;4.88;3.28;;;;;;;28.13;25.30;98138.34;5067482;28;20607;-84
2021/09/20 05:17:57;;;;;;;6.00;3.35;;;;;;;28.52;24.92;98129.97;5073343;28;20105;-84
2021/09/20 05:20:23;;;;;;;4.65;3.65;;;;;;;28.00;25.24;98127.94;5070269;28;20125;-84
2021/09/20 05:22:50;;;;;;;3.33;2.83;;;;;;;28.26;25.39;98130.63;5069954;28;20040;-86
2021/09/20 05:25:16;;;;;;;3.95;3.20;;;;;;;28.01;25.18;98131.53;5069292;28;20036;-86
2021/09/20 05:27:42;;;;;;;4.15;3.00;;;;;;;28.20;25.32;98141.72;5071142;28;20606;-85
2021/09/20 05:30:10;;;;;;;2.63;2.30;;;;;;;28.43;24.94;98148.91;5071674;28;20028;-87
2021/09/20 05:32:36;;;;;;;5.45;3.58;;;;;;;28.34;24.83;98143.19;5070729;28;20036;-86
2021/09/20 05:35:03;;;;;;;4.10;3.30;;;;;;;28.22;24.90;98141.22;5072791;28;20476;-85
2021/09/20 05:37:29;;;;;;;5.00;3.28;;;;;;;27.95;25.62;98136.97;5055604;28;20480;-85
2021/09/20 05:39:55;;;;;;;4.47;2.85;;;;;;;27.97;25.32;98142.13;5073208;28;20043;-85
2021/09/20 05:42:21;;;;;;;3.25;2.70;;;;;;;28.19;25.27;98142.97;5071396;28;20476;-86
2021/09/20 05:44:48;;;;;;;5.15;3.00;;;;;;;28.39;24.89;98137.75;5071894;28;20384;-85
2021/09/20 05:47:14;;;;;;;6.78;3.72;;;;;;;28.44;24.66;98144.84;5073870;28;20024;-85
2021/09/20 05:49:40;;;;;;;4.40;2.75;;;;;;;28.77;24.72;98143.16;5080795;28;20041;-85
2021/09/20 05:52:06;;;;;;;6.07;3.90;;;;;;;28.54;24.49;98135.94;5069332;28;20056;-86
2021/09/20 05:54:32;;;;;;;7.18;3.30;;;;;;;28.46;24.52;98136.69;5071066;28;20043;-86
2021/09/20 05:56:58;;;;;;;4.85;3.22;;;;;;;28.55;24.81;98145.19;5070825;28;20024;-86
2021/09/20 05:59:26;;;;;;;3.40;2.72;;;;;;;28.90;24.67;98143.81;5072602;28;20070;-86
2021/09/20 06:01:52;;;;;;;3.08;2.53;;;;;;;29.12;24.20;98140.91;5069180;28;20032;-86
2021/09/20 06:04:18;;;;;;;3.05;2.47;;;;;;;29.22;23.89;98146.16;5069365;28;20040;-86
2021/09/20 06:06:44;;;;;;;4.32;3.15;;;;;;;28.88;24.32;98143.50;5071755;28;20029;-85
2021/09/20 06:09:10;;;;;;;4.72;2.80;;;;;;;28.94;24.53;98144.47;5071732;28;20407;-85
2021/09/20 06:11:37;;;;;;;4.88;3.60;;;;;;;28.88;24.13;98151.97;5072050;28;20094;-86
2021/09/20 06:14:03;;;;;;;3.97;3.30;;;;;;;28.49;24.52;98153.50;5071932;28;20025;-85
2021/09/20 06:16:29;;;;;;;5.93;3.25;;;;;;;28.36;24.84;98154.81;5069292;28;20048;-86
2021/09/20 06:18:55;;;;;;;6.03;3.50;;;;;;;28.28;24.71;98148.66;5066527;28;20048;-85
2021/09/20 06:21:21;;;;;;;4.93;3.45;;;;;;;28.37;24.67;98153.56;5061165;28;20037;-86
2021/09/20 06:23:47;;;;;;;4.22;3.30;;;;;;;28.38;24.63;98147.47;5053126;28;20551;-85
2021/09/20 06:26:13;;;;;;;4.97;3.63;;;;;;;28.42;24.67;98153.00;5062062;28;20090;-86
2021/09/20 06:28:39;;;;;;;4.85;3.08;;;;;;;28.68;24.69;98155.19;5072390;28;20024;-86
2021/09/20 06:31:05;;;;;;;5.13;3.05;;;;;;;28.89;24.08;98149.94;5070400;28;20040;-87
2021/09/20 06:33:32;;;;;;;5.10;2.90;;;;;;;28.89;24.45;98150.75;5069342;28;20067;-86
2021/09/20 06:35:59;;;;;;;4.20;2.75;;;;;;;28.89;24.21;98147.91;5070325;28;20040;-86
2021/09/20 06:38:26;;;;;;;5.32;3.00;;;;;;;27.65;25.74;98157.41;5071578;28;20115;-86
2021/09/20 06:40:52;;;;;;;4.38;2.83;;;;;;;27.77;25.87;98153.72;5074242;28;20033;-86
2021/09/20 06:43:19;;;;;;;4.63;3.72;;;;;;;27.53;26.23;98151.81;5071920;28;20465;-86
2021/09/20 06:45:46;;;;;;;3.63;3.28;;;;;;;27.67;25.74;98152.09;5069776;28;20029;-88
2021/09/20 06:48:12;;;;;;;4.00;3.22;;;;;;;27.29;26.27;98149.34;5067029;28;20040;-86
2021/09/20 06:50:39;;;;;;;3.33;3.03;;;;;;;27.76;26.39;98160.63;5069075;28;20408;-85
2021/09/20 06:53:06;;;;;;;3.55;2.80;;;;;;;27.86;26.06;98153.84;5070354;28;20044;-86
2021/09/20 06:55:32;;;;;;;3.45;3.15;;;;;;;28.19;25.55;98162.72;5070114;28;20078;-86
2021/09/20 06:57:59;;;;;;;3.92;3.28;;;;;;;28.36;25.15;98169.72;5071837;28;20022;-85
2021/09/20 07:00:31;;;;;;;4.47;3.05;;;;;;;28.58;25.05;98170.50;5071534;28;20388;-85
2021/09/20 07:02:57;;;;;;;4.05;3.55;;;;;;;27.03;27.46;98175.19;5070648;28;20024;-85
2021/09/20 07:05:23;;;;;;;6.55;5.25;;;;;;;25.51;29.72;98192.88;5071810;28;20032;-83
2021/09/20 07:07:50;;;;;;;4.30;3.20;;;;;;;26.61;28.62;98182.94;5072733;28;20032;-84
2021/09/20 07:10:17;;;;;;;3.58;2.97;;;;;;;26.59;27.54;98188.22;5070652;28;20028;-84
2021/09/20 07:12:44;;;;;;;3.25;2.95;;;;;;;26.84;26.84;98187.50;5072275;28;20040;-84
2021/09/20 07:15:12;;;;;;;2.42;2.20;;;;;;;27.30;26.67;98186.81;5066784;28;20051;-84
2021/09/20 07:17:38;;;;;;;2.95;2.42;;;;;;;27.38;26.55;98179.69;5064294;28;20029;-83
2021/09/20 07:20:05;;;;;;;3.35;2.45;;;;;;;27.29;26.52;98186.00;5069616;28;20534;-84
2021/09/20 07:22:31;;;;;;;3.20;2.35;;;;;;;27.29;26.17;98188.03;5075763;28;20048;-84
2021/09/20 07:24:57;;;;;;;3.15;2.50;;;;;;;27.00;26.66;98190.97;5075442;28;20033;-84
2021/09/20 07:27:23;;;;;;;4.93;2.50;;;;;;;25.71;28.37;98196.38;5076028;28;20029;-83
2021/09/20 07:29:50;;;;;;;5.22;2.00;;;;;;;26.23;27.67;98201.78;5075815;28;20427;-84
2021/09/20 07:32:16;;;;;;;3.80;3.22;;;;;;;26.13;27.76;98200.84;5071702;28;20071;-84
2021/09/20 07:34:42;;;;;;;2.05;1.88;;;;;;;26.54;27.15;98208.50;5071972;28;20037;-84
2021/09/20 07:37:08;;;;;;;3.28;1.80;;;;;;;27.08;26.48;98195.16;5073673;28;20068;-84
2021/09/20 07:39:36;;;;;;;3.30;2.35;;;;;;;27.57;25.96;98198.38;5076120;28;20434;-84
2021/09/20 07:42:02;;;;;;;2.55;2.20;;;;;;;27.33;26.32;98206.41;5073686;28;20035;-84
2021/09/20 07:44:28;;;;;;;2.40;2.20;;;;;;;27.28;26.63;98200.56;5073559;28;20044;-84
2021/09/20 07:46:54;;;;;;;2.60;2.40;;;;;;;27.61;26.12;98195.47;5074466;28;20029;-84
2021/09/20 07:49:20;;;;;;;2.13;1.92;;;;;;;27.11;26.47;98199.91;5070999;28;20120;-84
2021/09/20 07:51:46;;;;;;;3.42;2.22;;;;;;;27.38;26.76;98200.22;5075170;28;20028;-84
2021/09/20 07:54:12;;;;;;;4.53;2.80;;;;;;;25.83;28.18;98206.88;5080851;28;20076;-84
2021/09/20 07:56:38;;;;;;;4.22;3.13;;;;;;;25.91;28.85;98209.06;5084463;28;20032;-84
2021/09/20 07:59:05;;;;;;;2.63;2.38;;;;;;;26.40;27.93;98209.69;5082405;28;20392;-84
2021/09/20 08:01:31;;;;;;;2.47;2.28;;;;;;;27.35;26.78;98203.91;5063659;28;20044;-84
2021/09/20 08:03:57;;;;;;;4.45;2.95;;;;;;;25.94;28.41;98211.00;5066685;28;20049;-83
2021/09/20 08:06:24;;;;;;;3.95;3.38;;;;;;;26.17;28.33;98212.78;5075591;28;20028;-83
2021/09/20 08:08:51;;;;;;;3.47;2.90;;;;;;;27.21;27.06;98210.03;5084761;28;20028;-84
2021/09/20 08:11:17;;;;;;;4.03;3.28;;;;;;;27.03;27.16;98212.63;5069243;28;20488;-84
2021/09/20 08:13:43;;;;;;;5.47;2.78;;;;;;;28.17;25.98;98207.56;5072084;28;20480;-84
2021/09/20 08:16:09;;;;;;;3.42;3.10;;;;;;;27.25;27.04;98216.34;5072937;28;20500;-84
2021/09/20 08:18:35;;;;;;;3.83;3.38;;;;;;;26.77;27.18;98215.91;5061704;28;20519;-84
2021/09/20 08:21:01;;;;;;;3.63;2.75;;;;;;;26.40;27.24;98220.97;5071918;28;20036;-84
2021/09/20 08:23:27;;;;;;;5.05;3.03;;;;;;;27.14;27.07;98215.13;5074035;28;20036;-84
2021/09/20 08:25:54;;;;;;;3.78;3.30;;;;;;;26.44;27.94;98226.50;5071998;28;20031;-84
2021/09/20 08:28:20;;;;;;;3.15;2.78;;;;;;;26.81;27.17;98225.81;5072975;28;20112;-84
2021/09/20 08:30:46;;;;;;;2.97;2.55;;;;;;;26.67;27.59;98231.84;5074436;28;20050;-84
2021/09/20 08:33:12;;;;;;;3.90;2.90;;;;;;;27.47;27.07;98236.19;5071604;28;20033;-85
2021/09/20 08:35:38;;;;;;;3.88;2.67;;;;;;;26.92;27.01;98239.56;5073668;28;20103;-84
2021/09/20 08:38:04;;;;;;;3.08;2.65;;;;;;;28.02;25.94;98232.72;5075141;28;20059;-84
2021/09/20 08:40:31;;;;;;;2.85;2.58;;;;;;;28.47;24.73;98232.25;5072017;28;20082;-85
2021/09/20 08:42:58;;;;;;;4.07;3.28;;;;;;;28.09;25.57;98237.31;5069951;28;20069;-85
2021/09/20 08:45:25;;;;;;;2.05;1.85;;;;;;;29.10;24.67;98233.91;5068685;28;20060;-85
2021/09/20 08:47:53;;;;;;;2.88;2.60;;;;;;;27.99;25.45;98239.25;5073805;28;20380;-84
2021/09/20 08:50:26;;;;;;;4.18;3.25;;;;;;;26.54;26.56;98248.72;5072593;28;20043;-84
2021/09/20 08:52:53;;;;;;;4.88;2.70;;;;;;;26.85;27.41;98245.41;5054257;28;20412;-85
2021/09/20 08:55:20;;;;;;;3.42;2.88;;;;;;;27.38;26.61;98228.44;5059566;28;20389;-85
2021/09/20 08:57:46;;;;;;;2.92;2.45;;;;;;;27.80;25.40;98237.47;5074670;28;20036;-85
2021/09/20 09:00:13;;;;;;;2.75;2.53;;;;;;;28.05;25.99;98226.13;5072281;28;20421;-85
2021/09/20 09:02:39;;;;;;;2.67;2.33;;;;;;;29.17;25.01;98231.56;5073072;28;20067;-85
2021/09/20 09:05:15;;;;;;;2.72;2.53;;;;;;;29.28;24.13;98236.84;5073478;28;20091;-85
2021/09/20 09:07:50;;;;;;;3.25;2.95;;;;;;;28.79;24.99;98235.94;5070979;28;20395;-85
2021/09/20 09:10:18;;;;;;;3.05;2.72;;;;;;;28.43;24.62;98228.78;5072320;28;20025;-85
2021/09/20 09:12:44;;;;;;;2.60;2.13;;;;;;;27.56;25.54;98236.31;5072285;28;20036;-85
2021/09/20 09:15:13;;;;;;;2.22;2.03;;;;;;;27.39;25.36;98246.94;5073090;28;20036;-84
2021/09/20 09:17:47;;;;;;;3.42;2.70;;;;;;;25.69;27.45;98260.69;5073900;28;20056;-85
2021/09/20 09:20:19;;;;;;;3.10;2.80;;;;;;;23.54;31.04;98268.00;5072230;28;20492;-85
2021/09/20 09:22:49;;;;;;;7.53;4.35;;;;;;;20.27;36.96;98283.94;5073769;28;20032;-85
2021/09/20 09:25:24;;;;;;;4.27;3.87;;;;;;;20.15;37.42;98293.50;5071428;28;20036;-84
2021/09/20 09:27:53;;;;;;;3.53;3.22;;;;;;;19.43;37.66;98282.06;5074098;28;20279;-84
2021/09/20 09:30:21;;;;;;;8.07;3.55;;;;;;;18.94;39.48;98291.94;5076208;28;20063;-85
2021/09/20 09:33:02;;;;;;;5.60;3.78;;;;;;;19.29;38.67;98283.63;5075028;28;20495;-85
2021/09/20 09:35:31;;;;;;;7.40;3.45;;;;;;;20.12;36.77;98285.16;5071157;28;20425;-84
2021/09/20 09:38:06;;;;;;;3.47;2.90;;;;;;;22.66;31.90;98279.25;5070066;28;20040;-84
2021/09/20 09:40:54;;;;;;;3.17;2.38;;;;;;;22.28;31.98;98280.53;5072973;28;20036;-85
2021/09/20 09:43:28;;;;;;;4.10;3.15;;;;;;;20.63;34.68;98288.97;5071074;28;20040;-85
2021/09/20 09:45:56;;;;;;;6.25;3.47;;;;;;;21.35;34.20;98288.16;5072710;28;20522;-85
2021/09/20 09:48:25;;;;;;;5.65;2.97;;;;;;;23.59;30.45;98276.72;5073790;28;20032;-85
2021/09/20 09:50:54;;;;;;;4.95;2.75;;;;;;;23.24;31.00;98277.25;5073286;28;20044;-85
2021/09/20 09:53:35;;;;;;;3.50;2.95;;;;;;;24.07;29.87;98276.28;5073346;28;20054;-85
2021/09/20 09:56:09;;;;;;;3.22;2.92;;;;;;;23.01;31.33;98277.97;5070710;28;20034;-85
2021/09/20 09:58:35;;;;;;;3.17;2.50;;;;;;;22.92;31.23;98285.34;5069889;28;20032;-84
2021/09/20 10:01:16;;;;;;;5.13;2.72;;;;;;;23.77;29.99;98280.00;5067127;28;20040;-85
2021/09/20 10:04:05;;;;;;;2.00;1.75;;;;;;;25.38;27.91;98286.34;5073158;28;20507;-85
2021/09/20 10:06:54;;;;;;;3.33;2.65;;;;;;;22.73;31.04;98291.59;5072514;28;20161;-84
2021/09/20 10:09:26;;;;;;;2.25;2.00;;;;;;;22.47;32.11;98288.28;5073251;28;20511;-85
2021/09/20 10:11:54;;;;;;;2.97;2.78;;;;;;;22.09;32.46;98292.31;5068026;28;20090;-85
2021/09/20 10:14:22;;;;;;;2.45;2.25;;;;;;;22.94;31.01;98282.91;5073087;28;20036;-84
2021/09/20 10:16:52;;;;;;;2.35;2.15;;;;;;;24.07;30.25;98279.09;5071520;28;20029;-84
2021/09/20 10:19:19;;;;;;;2.10;1.90;;;;;;;25.54;27.99;98285.56;5069720;28;20036;-85
2021/09/20 10:21:46;;;;;;;2.17;1.83;;;;;;;25.95;27.50;98288.53;5070761;28;20339;-85
2021/09/20 10:24:14;;;;;;;2.55;2.35;;;;;;;24.76;29.50;98286.56;5073143;28;20086;-84
2021/09/20 10:26:40;;;;;;;2.00;1.88;;;;;;;24.29;29.81;98291.50;5070001;28;20028;-84
2021/09/20 10:29:08;;;;;;;1.90;1.80;;;;;;;25.37;27.88;98279.13;5071242;28;20104;-85
2021/09/20 10:31:36;;;;;;;2.08;1.75;;;;;;;25.35;27.17;98283.59;5071781;28;20044;-85
2021/09/20 10:34:21;;;;;;;2.13;1.90;;;;;;;25.75;27.42;98292.69;5072169;28;20028;-84
2021/09/20 10:36:52;;;;;;;2.42;2.08;;;;;;;24.00;28.12;98296.81;5068598;28;20042;-84
2021/09/20 10:39:37;;;;;;;2.95;2.65;;;;;;;22.01;31.45;98305.56;5102532;28;20499;-84
2021/09/20 10:42:03;;;;;;;2.30;2.00;;;;;;;22.27;31.02;98300.50;5069608;28;20043;-84
2021/09/20 10:44:40;;;;;;;5.32;2.67;;;;;;;21.77;31.41;98305.78;5072163;28;20033;-85
2021/09/20 10:47:14;;;;;;;3.10;2.83;;;;;;;20.82;32.82;98320.41;5070600;28;20025;-84
2021/09/20 10:49:48;;;;;;;2.60;2.40;;;;;;;21.97;31.21;98309.59;5071555;28;20043;-84
2021/09/20 10:52:16;;;;;;;3.08;2.53;;;;;;;22.11;31.56;98303.06;5068084;28;20115;-84
2021/09/20 10:55:08;;;;;;;2.72;2.47;;;;;;;21.77;30.93;98308.56;5062339;28;20480;-85
2021/09/20 10:57:34;;;;;;;3.05;2.63;;;;;;;23.68;29.01;98299.38;5056053;28;20033;-84
2021/09/20 11:00:20;;;;;;;3.60;2.80;;;;;;;24.04;28.08;98305.94;5056855;28;20032;-84
2021/09/20 11:02:46;;;;;;;4.80;1.95;;;;;;;24.34;26.98;98307.03;5056336;28;20040;-85
2021/09/20 11:05:12;;;;;;;2.70;2.38;;;;;;;23.62;29.38;98301.06;5057382;28;20461;-84
2021/09/20 11:07:58;;;;;;;3.03;2.67;;;;;;;23.52;28.33;98292.84;5074081;28;20033;-84
2021/09/20 11:10:34;;;;;;;2.13;1.92;;;;;;;25.40;26.83;98297.91;5075220;28;20373;-85
2021/09/20 11:13:05;;;;;;;2.67;2.28;;;;;;;23.04;29.33;98304.34;5075295;28;20563;-85
2021/09/20 11:15:45;;;;;;;5.03;2.80;;;;;;;22.33;30.24;98308.03;5065087;28;20028;-85
2021/09/20 11:18:32;;;;;;;2.97;2.40;;;;;;;24.79;27.61;98307.34;5075906;28;20039;-86
2021/09/20 11:21:06;;;;;;;2.20;1.70;;;;;;;23.04;29.63;98312.75;5067782;28;20425;-85
2021/09/20 11:23:39;;;;;;;1.92;1.75;;;;;;;22.93;29.33;98320.50;5074658;28;20033;-84
2021/09/20 11:26:15;;;;;;;2.03;1.83;;;;;;;24.35;27.35;98314.22;5075253;28;20115;-84
2021/09/20 11:28:53;;;;;;;1.58;1.48;;;;;;;25.20;25.86;98322.50;5076468;28;20033;-84
2021/09/20 11:31:24;;;;;;;1.25;1.15;;;;;;;23.76;26.66;98319.66;5074597;28;21190;-84
2021/09/20 11:33:51;;;;;;;1.40;1.30;;;;;;;23.20;27.91;98324.91;5075923;28;20024;-84
2021/09/20 11:36:21;;;;;;;1.95;1.00;;;;;;;23.27;27.97;98338.81;5072967;28;20402;-84